DOVO2: Cimarron River, Dover, OK

Data processed at Thu May 23 2019 23:50


All information presented herein is the property of the government of the United States of America and may be revised or deleted at any time without prior notice.
Dissemination of this information without the expressed written consent of the Public Affairs Office, Tulsa District U.S. Army Corps of Engineers is strictly prohibited.
These data are gathered electronically and, as presented, have not undergone any form of quality control. These data are not guaranteed to be valid or correct.
Go to home page.
Go to station list.
Go to home page.

Upstream stations:

Downstream station:
Previous Day
Next Day
Current Day
    
SHEF ID:       DOVO2     Cimarron River near Dover, OK
STATION TYPE:  
Regulating: Stage =    17.00, Flow =     9323

               PRECIP     STAGE  RIV-FLOW  BAT-LOAD
                   in        ft       cfs      volt
              Ccp-Rev   Ccp-Rev   Ccp-Rev   Ccp-Rev
(US/Central)
05/23 00:00      0.00     20.07     24444     12.65
05/23 01:00      0.00     19.97     23707     12.57
05/23 02:00      0.00     19.89     23146     12.57
05/23 03:00      0.00     19.77     22322     12.57
05/23 04:00      0.00     19.73     22053     12.57
05/23 05:00      0.00     19.73     22053     12.57
05/23 06:00      0.00     19.77     22322     12.57
05/23 07:00      0.00     19.77     22322     12.57
05/23 08:00      0.00     19.84     22800     12.65
05/23 09:00      0.00     19.86     22938     13.05
05/23 10:00      0.00     19.90     23216     13.21
05/23 11:00      0.01     19.90     23216     13.53
05/23 12:00      0.03     19.93     23425     13.29
05/23 13:00      0.01     19.99     23849     13.29
05/23 14:00      0.00     19.94     23496     13.21
05/23 15:00      0.00     20.05     24294     13.21
05/23 16:00      0.00     20.11     24747     13.21
05/23 17:00      0.00     20.15     25053     13.21
05/23 18:00      0.00     20.10     24671     13.21
05/23 19:00      0.00     20.16     25130     13.21
05/23 20:00      0.00     20.16     25130     13.05
05/23 21:00      0.00     20.21     25517     12.73
05/23 22:00      0.00     20.21     25517     12.65
05/23 23:00      0.00     20.16     25130     12.65